Volcan De Teneguia — ECLA — position and weather

sailwx.info

Track history (hours):
 
Tides and Currents Weather Stations Pressure Air Temp Water Temp Dewpoint Dewpoint Depression Visibility Wind Speed Wind Dir Waves Ship Positions

Volcan De Teneguia

Last reported at 2017-Jan-14 11:16 UTC. Time now 2017-Jan-17 19:12 UTC.
Position N 29°11' W 015°24'.

Length 145 m; draft 5.5 m.

Type: Cargo ship. MMSI: 225317000.

Date/timePositionNaut miles runAvg speedWind from/ knotsBaromVisibWave heightAir tempDewpointWater temp
2017-Jan-14 11:16N 29°11' W 015°24'1114.1
2017-Jan-14 10:31N 29°03' W 015°32'1313.3
2017-Jan-14 09:33N 28°54' W 015°42'1413.6
2017-Jan-14 08:33N 28°44' W 015°52'1313.6
2017-Jan-14 07:33N 28°33' W 016°02'1110.7
2017-Jan-14 06:33N 28°29' W 016°14'17 2.5
2017-Jan-13 23:33N 28°22' W 015°55'1413.9
2017-Jan-13 22:33N 28°18' W 015°40'1413.8
2017-Jan-13 21:33N 28°13' W 015°26'4 3.8
2017-Jan-13 20:32N 28°09' W 015°25'0 0.0
2017-Jan-13 19:32N 28°09' W 015°25'0 0.0
2017-Jan-13 18:20N 28°09' W 015°25'0 0.0
2017-Jan-13 17:32N 28°09' W 015°25'0 0.0
2017-Jan-13 16:32N 28°09' W 015°25'0 0.0
2017-Jan-13 15:32N 28°09' W 015°25'0 0.0
2017-Jan-13 14:23N 28°09' W 015°25'1 1.4
2017-Jan-13 13:33N 28°08' W 015°25'7 7.5
2017-Jan-13 12:33N 28°14' W 015°28'1212.0
2017-Jan-13 11:33N 28°18' W 015°41'1211.9
2017-Jan-13 10:33N 28°22' W 015°54'1312.9
2017-Jan-13 09:33N 28°26' W 016°08'3124.9
2017-Jan-13 08:19N 28°49' W 015°45'1 0.1
2017-Jan-12 22:11N 28°50' W 015°43'813.5
2017-Jan-12 21:33N 28°56' W 015°37'1313.4
2017-Jan-12 20:33N 29°06' W 015°26'1413.6
2017-Jan-12 19:33N 29°15' W 015°15'  
2017-Jan-07 11:21N 29°21' W 014°08'1114.3
2017-Jan-07 10:33N 29°12' W 014°17'1414.3
2017-Jan-07 09:33N 29°02' W 014°28'1414.4
2017-Jan-07 08:33N 28°51' W 014°39'1414.1
2017-Jan-07 07:33N 28°40' W 014°50'1413.9
2017-Jan-07 06:33N 28°30' W 015°00'1414.3
2017-Jan-07 05:33N 28°19' W 015°11'1515.0
2017-Jan-07 04:33N 28°08' W 015°22'2 2.2
2017-Jan-07 03:27N 28°09' W 015°25'46 1.6
2017-Jan-05 23:30N 28°27' W 016°13'2 0.7
2017-Jan-05 20:10N 28°29' W 016°14'0 0.0
2017-Jan-05 19:10N 28°29' W 016°14'0 0.0
2017-Jan-05 18:32N 28°29' W 016°14'0 0.0
2017-Jan-05 17:34N 28°29' W 016°14'2 2.1
2017-Jan-05 16:33N 28°28' W 016°12'1313.1
2017-Jan-05 15:33N 28°36' W 015°60'1413.5
2017-Jan-05 14:29N 28°46' W 015°49'1213.4
2017-Jan-05 13:33N 28°55' W 015°39'1413.6
2017-Jan-05 12:33N 29°04' W 015°27'1414.1
2017-Jan-05 11:33N 29°14' W 015°16'1414.5
2017-Jan-05 10:33N 29°25' W 015°04'1413.8
2017-Jan-05 09:33N 29°34' W 014°53'1414.1
2017-Jan-05 08:32N 29°45' W 014°41'2914.4
2017-Jan-05 06:32N 30°05' W 014°18'2814.1
2017-Jan-05 04:33N 30°24' W 013°54'1514.9
2017-Jan-05 03:33N 30°34' W 013°42'1514.8
2017-Jan-05 02:33N 30°45' W 013°29'1915.1
2017-Jan-05 01:17N 30°58' W 013°13'1115.0
2017-Jan-05 00:33N 31°06' W 013°04'6314.7
2017-Jan-04 20:17N 31°49' W 012°12'1114.5
2017-Jan-04 19:32N 31°57' W 012°02'1714.5
2017-Jan-04 18:20N 32°09' W 011°48'1214.4
2017-Jan-04 17:29N 32°17' W 011°37'1314.4
2017-Jan-04 16:33N 32°27' W 011°26'1414.1
2017-Jan-04 15:33N 32°37' W 011°14'1414.1
2017-Jan-04 14:33N 32°46' W 011°02'1514.1
2017-Jan-04 13:29N 32°57' W 010°49'1314.0
2017-Jan-04 12:33N 33°06' W 010°38'  
Track history (hours):
 
Tides and Currents Weather Stations Pressure Air Temp Water Temp Dewpoint Dewpoint Depression Visibility Wind Speed Wind Dir Waves Ship Positions

Volcan De Teneguia

Last reported at 2017-Jan-14 11:16 UTC. Time now 2017-Jan-17 19:12 UTC.
Position N 29°11' W 015°24'.

Length 145 m; draft 5.5 m.

Type: Cargo ship. MMSI: 225317000.

Date/timePositionNaut miles runAvg speedWind from/ knotsBaromVisibWave heightAir tempDewpointWater temp
2017-Jan-14 11:16N 29°11' W 015°24'1114.1
2017-Jan-14 10:31N 29°03' W 015°32'1313.3
2017-Jan-14 09:33N 28°54' W 015°42'1413.6
2017-Jan-14 08:33N 28°44' W 015°52'1313.6
2017-Jan-14 07:33N 28°33' W 016°02'1110.7
2017-Jan-14 06:33N 28°29' W 016°14'17 2.5
2017-Jan-13 23:33N 28°22' W 015°55'1413.9
2017-Jan-13 22:33N 28°18' W 015°40'1413.8
2017-Jan-13 21:33N 28°13' W 015°26'4 3.8
2017-Jan-13 20:32N 28°09' W 015°25'0 0.0
2017-Jan-13 19:32N 28°09' W 015°25'0 0.0
2017-Jan-13 18:20N 28°09' W 015°25'0 0.0
2017-Jan-13 17:32N 28°09' W 015°25'0 0.0
2017-Jan-13 16:32N 28°09' W 015°25'0 0.0
2017-Jan-13 15:32N 28°09' W 015°25'0 0.0
2017-Jan-13 14:23N 28°09' W 015°25'1 1.4
2017-Jan-13 13:33N 28°08' W 015°25'7 7.5
2017-Jan-13 12:33N 28°14' W 015°28'1212.0
2017-Jan-13 11:33N 28°18' W 015°41'1211.9
2017-Jan-13 10:33N 28°22' W 015°54'1312.9
2017-Jan-13 09:33N 28°26' W 016°08'3124.9
2017-Jan-13 08:19N 28°49' W 015°45'1 0.1
2017-Jan-12 22:11N 28°50' W 015°43'813.5
2017-Jan-12 21:33N 28°56' W 015°37'1313.4
2017-Jan-12 20:33N 29°06' W 015°26'1413.6
2017-Jan-12 19:33N 29°15' W 015°15'  
2017-Jan-07 11:21N 29°21' W 014°08'1114.3
2017-Jan-07 10:33N 29°12' W 014°17'1414.3
2017-Jan-07 09:33N 29°02' W 014°28'1414.4
2017-Jan-07 08:33N 28°51' W 014°39'1414.1
2017-Jan-07 07:33N 28°40' W 014°50'1413.9
2017-Jan-07 06:33N 28°30' W 015°00'1414.3
2017-Jan-07 05:33N 28°19' W 015°11'1515.0
2017-Jan-07 04:33N 28°08' W 015°22'2 2.2
2017-Jan-07 03:27N 28°09' W 015°25'46 1.6
2017-Jan-05 23:30N 28°27' W 016°13'2 0.7
2017-Jan-05 20:10N 28°29' W 016°14'0 0.0
2017-Jan-05 19:10N 28°29' W 016°14'0 0.0
2017-Jan-05 18:32N 28°29' W 016°14'0 0.0
2017-Jan-05 17:34N 28°29' W 016°14'2 2.1
2017-Jan-05 16:33N 28°28' W 016°12'1313.1
2017-Jan-05 15:33N 28°36' W 015°60'1413.5
2017-Jan-05 14:29N 28°46' W 015°49'1213.4
2017-Jan-05 13:33N 28°55' W 015°39'1413.6
2017-Jan-05 12:33N 29°04' W 015°27'1414.1
2017-Jan-05 11:33N 29°14' W 015°16'1414.5
2017-Jan-05 10:33N 29°25' W 015°04'1413.8
2017-Jan-05 09:33N 29°34' W 014°53'1414.1
2017-Jan-05 08:32N 29°45' W 014°41'2914.4
2017-Jan-05 06:32N 30°05' W 014°18'2814.1
2017-Jan-05 04:33N 30°24' W 013°54'1514.9
2017-Jan-05 03:33N 30°34' W 013°42'1514.8
2017-Jan-05 02:33N 30°45' W 013°29'1915.1
2017-Jan-05 01:17N 30°58' W 013°13'1115.0
2017-Jan-05 00:33N 31°06' W 013°04'6314.7
2017-Jan-04 20:17N 31°49' W 012°12'1114.5
2017-Jan-04 19:32N 31°57' W 012°02'1714.5
2017-Jan-04 18:20N 32°09' W 011°48'1214.4
2017-Jan-04 17:29N 32°17' W 011°37'1314.4
2017-Jan-04 16:33N 32°27' W 011°26'1414.1
2017-Jan-04 15:33N 32°37' W 011°14'1414.1
2017-Jan-04 14:33N 32°46' W 011°02'1514.1
2017-Jan-04 13:29N 32°57' W 010°49'1314.0
2017-Jan-04 12:33N 33°06' W 010°38'  

Dump ship's entire track history